sensor_id;sensor_type;location;lat;lon;timestamp;P1;durP1;ratioP1;P2;durP2;ratioP2
11970;SDS011;6045;42.682;23.294;2023-02-28T00:00:00;7.03;;;4.73;;
11970;SDS011;6045;42.682;23.294;2023-02-28T00:02:28;6.37;;;4.67;;
11970;SDS011;6045;42.682;23.294;2023-02-28T00:04:55;9.27;;;5.87;;
11970;SDS011;6045;42.682;23.294;2023-02-28T00:07:26;7.70;;;4.40;;
11970;SDS011;6045;42.682;23.294;2023-02-28T00:09:53;9.23;;;5.23;;
11970;SDS011;6045;42.682;23.294;2023-02-28T00:12:19;9.57;;;4.07;;
11970;SDS011;6045;42.682;23.294;2023-02-28T00:14:47;8.87;;;4.77;;
11970;SDS011;6045;42.682;23.294;2023-02-28T00:17:14;7.97;;;4.90;;
11970;SDS011;6045;42.682;23.294;2023-02-28T00:19:42;9.57;;;5.00;;
11970;SDS011;6045;42.682;23.294;2023-02-28T00:22:09;7.97;;;4.87;;
11970;SDS011;6045;42.682;23.294;2023-02-28T00:24:36;6.37;;;4.63;;
11970;SDS011;6045;42.682;23.294;2023-02-28T00:27:03;8.17;;;5.30;;
11970;SDS011;6045;42.682;23.294;2023-02-28T00:29:30;8.80;;;5.13;;
11970;SDS011;6045;42.682;23.294;2023-02-28T00:31:58;5.47;;;4.77;;
11970;SDS011;6045;42.682;23.294;2023-02-28T00:34:25;7.50;;;4.20;;
11970;SDS011;6045;42.682;23.294;2023-02-28T00:36:51;8.07;;;3.97;;
11970;SDS011;6045;42.682;23.294;2023-02-28T00:39:18;8.40;;;4.37;;
11970;SDS011;6045;42.682;23.294;2023-02-28T00:42:03;7.83;;;4.47;;
11970;SDS011;6045;42.682;23.294;2023-02-28T00:44:30;7.77;;;5.30;;
11970;SDS011;6045;42.682;23.294;2023-02-28T00:46:58;6.93;;;4.17;;
11970;SDS011;6045;42.682;23.294;2023-02-28T00:49:26;9.53;;;4.97;;
11970;SDS011;6045;42.682;23.294;2023-02-28T00:51:53;11.00;;;4.93;;
11970;SDS011;6045;42.682;23.294;2023-02-28T00:54:22;9.87;;;5.03;;
11970;SDS011;6045;42.682;23.294;2023-02-28T00:56:49;5.73;;;3.67;;
11970;SDS011;6045;42.682;23.294;2023-02-28T00:59:16;7.77;;;4.30;;
11970;SDS011;6045;42.682;23.294;2023-02-28T01:01:43;10.37;;;4.57;;
11970;SDS011;6045;42.682;23.294;2023-02-28T01:04:13;11.40;;;5.33;;
11970;SDS011;6045;42.682;23.294;2023-02-28T01:06:40;10.43;;;6.17;;
11970;SDS011;6045;42.682;23.294;2023-02-28T01:09:08;8.93;;;5.93;;
11970;SDS011;6045;42.682;23.294;2023-02-28T01:11:35;11.93;;;6.53;;
11970;SDS011;6045;42.682;23.294;2023-02-28T01:14:02;12.17;;;7.67;;
11970;SDS011;6045;42.682;23.294;2023-02-28T01:16:30;10.77;;;6.27;;
11970;SDS011;6045;42.682;23.294;2023-02-28T01:18:57;12.03;;;6.37;;
11970;SDS011;6045;42.682;23.294;2023-02-28T01:21:25;14.43;;;7.90;;
11970;SDS011;6045;42.682;23.294;2023-02-28T01:23:52;12.33;;;6.90;;
11970;SDS011;6045;42.682;23.294;2023-02-28T01:26:22;13.00;;;7.47;;
11970;SDS011;6045;42.682;23.294;2023-02-28T01:28:49;13.33;;;7.70;;
11970;SDS011;6045;42.682;23.294;2023-02-28T01:31:17;16.73;;;7.53;;
11970;SDS011;6045;42.682;23.294;2023-02-28T01:33:45;14.10;;;7.20;;
11970;SDS011;6045;42.682;23.294;2023-02-28T01:36:13;16.20;;;7.73;;
11970;SDS011;6045;42.682;23.294;2023-02-28T01:38:43;17.37;;;7.90;;
11970;SDS011;6045;42.682;23.294;2023-02-28T01:41:12;15.30;;;7.30;;
11970;SDS011;6045;42.682;23.294;2023-02-28T01:43:53;11.60;;;7.50;;
11970;SDS011;6045;42.682;23.294;2023-02-28T01:46:31;14.27;;;8.73;;
11970;SDS011;6045;42.682;23.294;2023-02-28T01:49:04;13.27;;;6.97;;
11970;SDS011;6045;42.682;23.294;2023-02-28T01:51:35;13.97;;;7.00;;
11970;SDS011;6045;42.682;23.294;2023-02-28T01:54:14;10.20;;;7.37;;
11970;SDS011;6045;42.682;23.294;2023-02-28T01:56:45;13.67;;;8.03;;
11970;SDS011;6045;42.682;23.294;2023-02-28T01:59:18;13.93;;;6.23;;
11970;SDS011;6045;42.682;23.294;2023-02-28T02:01:48;14.73;;;7.60;;
11970;SDS011;6045;42.682;23.294;2023-02-28T02:04:15;13.27;;;7.27;;
11970;SDS011;6045;42.682;23.294;2023-02-28T02:06:43;16.77;;;6.50;;
11970;SDS011;6045;42.682;23.294;2023-02-28T02:09:13;15.40;;;7.00;;
11970;SDS011;6045;42.682;23.294;2023-02-28T02:11:41;15.00;;;6.37;;
11970;SDS011;6045;42.682;23.294;2023-02-28T02:14:23;14.97;;;6.93;;
11970;SDS011;6045;42.682;23.294;2023-02-28T02:20:14;12.00;;;6.63;;
11970;SDS011;6045;42.682;23.294;2023-02-28T02:23:00;17.33;;;9.00;;
11970;SDS011;6045;42.682;23.294;2023-02-28T02:25:43;14.87;;;8.23;;
11970;SDS011;6045;42.682;23.294;2023-02-28T02:28:22;16.63;;;8.27;;
11970;SDS011;6045;42.682;23.294;2023-02-28T02:37:08;13.73;;;6.67;;
11970;SDS011;6045;42.682;23.294;2023-02-28T02:39:49;20.80;;;11.17;;
11970;SDS011;6045;42.682;23.294;2023-02-28T02:42:21;15.93;;;7.40;;
11970;SDS011;6045;42.682;23.294;2023-02-28T02:44:55;17.97;;;8.23;;
11970;SDS011;6045;42.682;23.294;2023-02-28T02:47:27;22.23;;;9.93;;
11970;SDS011;6045;42.682;23.294;2023-02-28T02:49:59;23.20;;;9.03;;
11970;SDS011;6045;42.682;23.294;2023-02-28T02:52:32;24.53;;;9.23;;
11970;SDS011;6045;42.682;23.294;2023-02-28T02:55:03;21.90;;;9.00;;
11970;SDS011;6045;42.682;23.294;2023-02-28T02:57:33;23.50;;;8.40;;
11970;SDS011;6045;42.682;23.294;2023-02-28T03:00:04;18.67;;;9.53;;
11970;SDS011;6045;42.682;23.294;2023-02-28T03:02:34;23.07;;;9.63;;
11970;SDS011;6045;42.682;23.294;2023-02-28T03:05:06;20.20;;;8.87;;
11970;SDS011;6045;42.682;23.294;2023-02-28T03:07:39;19.20;;;7.93;;
11970;SDS011;6045;42.682;23.294;2023-02-28T03:12:57;19.17;;;7.80;;
11970;SDS011;6045;42.682;23.294;2023-02-28T03:15:36;21.30;;;10.03;;
11970;SDS011;6045;42.682;23.294;2023-02-28T03:18:13;19.80;;;9.27;;
11970;SDS011;6045;42.682;23.294;2023-02-28T03:20:46;20.30;;;9.00;;
11970;SDS011;6045;42.682;23.294;2023-02-28T03:23:23;19.67;;;8.07;;
11970;SDS011;6045;42.682;23.294;2023-02-28T03:25:59;13.97;;;6.83;;
11970;SDS011;6045;42.682;23.294;2023-02-28T03:28:31;17.03;;;7.87;;
11970;SDS011;6045;42.682;23.294;2023-02-28T03:31:07;15.40;;;7.83;;
11970;SDS011;6045;42.682;23.294;2023-02-28T03:33:42;11.60;;;6.93;;
11970;SDS011;6045;42.682;23.294;2023-02-28T03:36:21;14.77;;;6.93;;
11970;SDS011;6045;42.682;23.294;2023-02-28T03:38:53;12.00;;;7.03;;
11970;SDS011;6045;42.682;23.294;2023-02-28T03:41:27;9.33;;;5.40;;
11970;SDS011;6045;42.682;23.294;2023-02-28T03:43:59;14.27;;;6.93;;
11970;SDS011;6045;42.682;23.294;2023-02-28T03:46:31;15.50;;;8.33;;
11970;SDS011;6045;42.682;23.294;2023-02-28T03:49:03;13.60;;;6.13;;
11970;SDS011;6045;42.682;23.294;2023-02-28T03:51:36;16.60;;;8.53;;
11970;SDS011;6045;42.682;23.294;2023-02-28T03:54:07;13.93;;;6.77;;
11970;SDS011;6045;42.682;23.294;2023-02-28T03:56:40;13.17;;;7.03;;
11970;SDS011;6045;42.682;23.294;2023-02-28T03:59:14;20.07;;;8.27;;
11970;SDS011;6045;42.682;23.294;2023-02-28T04:01:45;18.20;;;8.77;;
11970;SDS011;6045;42.682;23.294;2023-02-28T04:04:14;13.50;;;7.07;;
11970;SDS011;6045;42.682;23.294;2023-02-28T04:06:44;16.70;;;7.67;;
11970;SDS011;6045;42.682;23.294;2023-02-28T04:09:12;16.97;;;8.43;;
11970;SDS011;6045;42.682;23.294;2023-02-28T04:11:41;16.57;;;8.93;;
11970;SDS011;6045;42.682;23.294;2023-02-28T04:14:10;16.07;;;8.07;;
11970;SDS011;6045;42.682;23.294;2023-02-28T04:16:38;12.40;;;6.83;;
11970;SDS011;6045;42.682;23.294;2023-02-28T04:19:07;13.77;;;7.00;;
11970;SDS011;6045;42.682;23.294;2023-02-28T04:21:35;17.13;;;8.20;;
11970;SDS011;6045;42.682;23.294;2023-02-28T04:24:06;15.53;;;8.17;;
11970;SDS011;6045;42.682;23.294;2023-02-28T04:26:33;15.50;;;7.80;;
11970;SDS011;6045;42.682;23.294;2023-02-28T04:29:01;12.53;;;6.87;;
11970;SDS011;6045;42.682;23.294;2023-02-28T04:31:29;10.43;;;6.70;;
11970;SDS011;6045;42.682;23.294;2023-02-28T04:33:56;15.50;;;7.00;;
11970;SDS011;6045;42.682;23.294;2023-02-28T04:36:23;14.47;;;7.10;;
11970;SDS011;6045;42.682;23.294;2023-02-28T04:38:50;12.27;;;6.40;;
11970;SDS011;6045;42.682;23.294;2023-02-28T04:41:18;11.70;;;6.20;;
11970;SDS011;6045;42.682;23.294;2023-02-28T04:43:46;13.17;;;7.07;;
11970;SDS011;6045;42.682;23.294;2023-02-28T04:46:12;13.53;;;6.63;;
11970;SDS011;6045;42.682;23.294;2023-02-28T04:48:39;13.03;;;5.50;;
11970;SDS011;6045;42.682;23.294;2023-02-28T04:51:09;14.30;;;6.23;;
11970;SDS011;6045;42.682;23.294;2023-02-28T04:53:38;14.10;;;6.93;;
11970;SDS011;6045;42.682;23.294;2023-02-28T04:56:07;12.35;;;7.15;;
11970;SDS011;6045;42.682;23.294;2023-02-28T04:58:37;13.73;;;7.47;;
11970;SDS011;6045;42.682;23.294;2023-02-28T05:01:06;18.47;;;7.27;;
11970;SDS011;6045;42.682;23.294;2023-02-28T05:03:42;15.93;;;9.10;;
11970;SDS011;6045;42.682;23.294;2023-02-28T05:06:09;15.17;;;7.20;;
11970;SDS011;6045;42.682;23.294;2023-02-28T05:08:36;14.77;;;6.53;;
11970;SDS011;6045;42.682;23.294;2023-02-28T05:11:04;18.23;;;7.07;;
11970;SDS011;6045;42.682;23.294;2023-02-28T05:13:33;14.63;;;7.03;;
11970;SDS011;6045;42.682;23.294;2023-02-28T05:16:02;11.87;;;7.23;;
11970;SDS011;6045;42.682;23.294;2023-02-28T05:18:29;14.07;;;7.37;;
11970;SDS011;6045;42.682;23.294;2023-02-28T05:20:55;12.67;;;6.97;;
11970;SDS011;6045;42.682;23.294;2023-02-28T05:23:22;15.57;;;6.87;;
11970;SDS011;6045;42.682;23.294;2023-02-28T05:25:49;13.03;;;6.53;;
11970;SDS011;6045;42.682;23.294;2023-02-28T05:28:17;13.10;;;7.40;;
11970;SDS011;6045;42.682;23.294;2023-02-28T05:30:44;16.20;;;7.97;;
11970;SDS011;6045;42.682;23.294;2023-02-28T05:33:12;14.47;;;8.90;;
11970;SDS011;6045;42.682;23.294;2023-02-28T05:35:39;17.23;;;9.07;;
11970;SDS011;6045;42.682;23.294;2023-02-28T05:38:07;15.10;;;7.40;;
11970;SDS011;6045;42.682;23.294;2023-02-28T05:40:33;19.07;;;9.70;;
11970;SDS011;6045;42.682;23.294;2023-02-28T05:43:00;12.17;;;6.27;;
11970;SDS011;6045;42.682;23.294;2023-02-28T05:45:27;17.03;;;6.73;;
11970;SDS011;6045;42.682;23.294;2023-02-28T05:47:54;12.03;;;7.27;;
11970;SDS011;6045;42.682;23.294;2023-02-28T05:50:22;15.47;;;7.70;;
11970;SDS011;6045;42.682;23.294;2023-02-28T05:52:50;13.47;;;7.33;;
11970;SDS011;6045;42.682;23.294;2023-02-28T05:55:17;14.30;;;7.43;;
11970;SDS011;6045;42.682;23.294;2023-02-28T05:57:44;18.50;;;7.50;;
11970;SDS011;6045;42.682;23.294;2023-02-28T06:00:11;16.93;;;9.00;;
11970;SDS011;6045;42.682;23.294;2023-02-28T06:02:40;13.10;;;7.73;;
11970;SDS011;6045;42.682;23.294;2023-02-28T06:05:07;14.87;;;6.97;;
11970;SDS011;6045;42.682;23.294;2023-02-28T06:07:41;13.13;;;6.57;;
11970;SDS011;6045;42.682;23.294;2023-02-28T06:10:08;13.37;;;7.97;;
11970;SDS011;6045;42.682;23.294;2023-02-28T06:12:36;17.67;;;8.30;;
11970;SDS011;6045;42.682;23.294;2023-02-28T06:15:04;15.57;;;7.47;;
11970;SDS011;6045;42.682;23.294;2023-02-28T06:17:31;13.87;;;8.00;;
11970;SDS011;6045;42.682;23.294;2023-02-28T06:19:58;18.63;;;8.47;;
11970;SDS011;6045;42.682;23.294;2023-02-28T06:22:25;18.10;;;8.43;;
11970;SDS011;6045;42.682;23.294;2023-02-28T06:24:53;14.47;;;7.80;;
11970;SDS011;6045;42.682;23.294;2023-02-28T06:27:20;14.23;;;8.57;;
11970;SDS011;6045;42.682;23.294;2023-02-28T06:29:47;16.20;;;8.33;;
11970;SDS011;6045;42.682;23.294;2023-02-28T06:32:14;15.27;;;8.67;;
11970;SDS011;6045;42.682;23.294;2023-02-28T06:34:41;18.30;;;8.83;;
11970;SDS011;6045;42.682;23.294;2023-02-28T06:37:07;19.33;;;9.13;;
11970;SDS011;6045;42.682;23.294;2023-02-28T06:39:34;14.67;;;7.93;;
11970;SDS011;6045;42.682;23.294;2023-02-28T06:42:02;23.27;;;9.03;;
11970;SDS011;6045;42.682;23.294;2023-02-28T06:44:29;23.40;;;8.70;;
11970;SDS011;6045;42.682;23.294;2023-02-28T06:47:00;20.47;;;8.13;;
11970;SDS011;6045;42.682;23.294;2023-02-28T06:49:28;13.77;;;8.13;;
11970;SDS011;6045;42.682;23.294;2023-02-28T06:51:55;15.20;;;7.93;;
11970;SDS011;6045;42.682;23.294;2023-02-28T06:54:22;15.87;;;7.60;;
11970;SDS011;6045;42.682;23.294;2023-02-28T06:56:49;19.00;;;9.00;;
11970;SDS011;6045;42.682;23.294;2023-02-28T06:59:17;17.93;;;8.43;;
11970;SDS011;6045;42.682;23.294;2023-02-28T07:01:44;19.43;;;10.00;;
11970;SDS011;6045;42.682;23.294;2023-02-28T07:04:11;19.97;;;10.73;;
11970;SDS011;6045;42.682;23.294;2023-02-28T07:06:38;22.77;;;9.03;;
11970;SDS011;6045;42.682;23.294;2023-02-28T07:09:05;15.17;;;8.30;;
11970;SDS011;6045;42.682;23.294;2023-02-28T07:11:32;20.13;;;10.33;;
11970;SDS011;6045;42.682;23.294;2023-02-28T07:13:59;22.77;;;10.30;;
11970;SDS011;6045;42.682;23.294;2023-02-28T07:16:27;21.83;;;8.63;;
11970;SDS011;6045;42.682;23.294;2023-02-28T07:18:54;23.53;;;9.90;;
11970;SDS011;6045;42.682;23.294;2023-02-28T07:21:21;18.07;;;9.90;;
11970;SDS011;6045;42.682;23.294;2023-02-28T07:23:48;16.23;;;8.80;;
11970;SDS011;6045;42.682;23.294;2023-02-28T07:26:16;21.30;;;8.60;;
11970;SDS011;6045;42.682;23.294;2023-02-28T07:28:45;18.20;;;9.30;;
11970;SDS011;6045;42.682;23.294;2023-02-28T07:31:13;19.93;;;9.00;;
11970;SDS011;6045;42.682;23.294;2023-02-28T07:33:43;17.90;;;8.97;;
11970;SDS011;6045;42.682;23.294;2023-02-28T07:36:11;17.50;;;8.30;;
11970;SDS011;6045;42.682;23.294;2023-02-28T07:38:44;20.60;;;9.07;;
11970;SDS011;6045;42.682;23.294;2023-02-28T07:41:13;17.70;;;9.03;;
11970;SDS011;6045;42.682;23.294;2023-02-28T07:43:41;12.40;;;6.60;;
11970;SDS011;6045;42.682;23.294;2023-02-28T07:46:10;19.00;;;10.00;;
11970;SDS011;6045;42.682;23.294;2023-02-28T07:48:40;18.57;;;10.17;;
11970;SDS011;6045;42.682;23.294;2023-02-28T07:51:08;16.33;;;8.37;;
11970;SDS011;6045;42.682;23.294;2023-02-28T07:53:35;16.57;;;8.10;;
11970;SDS011;6045;42.682;23.294;2023-02-28T07:56:02;15.80;;;6.83;;
11970;SDS011;6045;42.682;23.294;2023-02-28T07:58:30;18.50;;;9.50;;
11970;SDS011;6045;42.682;23.294;2023-02-28T08:00:57;17.17;;;9.00;;
11970;SDS011;6045;42.682;23.294;2023-02-28T08:03:30;11.03;;;5.87;;
11970;SDS011;6045;42.682;23.294;2023-02-28T08:05:57;21.40;;;9.53;;
11970;SDS011;6045;42.682;23.294;2023-02-28T08:08:25;21.77;;;9.33;;
11970;SDS011;6045;42.682;23.294;2023-02-28T08:10:54;16.97;;;9.47;;
11970;SDS011;6045;42.682;23.294;2023-02-28T08:13:20;17.17;;;8.93;;
11970;SDS011;6045;42.682;23.294;2023-02-28T08:15:47;16.47;;;7.83;;
11970;SDS011;6045;42.682;23.294;2023-02-28T08:18:14;17.63;;;10.27;;
11970;SDS011;6045;42.682;23.294;2023-02-28T08:20:41;19.93;;;9.53;;
11970;SDS011;6045;42.682;23.294;2023-02-28T08:23:07;16.00;;;8.87;;
11970;SDS011;6045;42.682;23.294;2023-02-28T08:25:35;22.37;;;10.47;;
11970;SDS011;6045;42.682;23.294;2023-02-28T08:28:02;13.67;;;7.53;;
11970;SDS011;6045;42.682;23.294;2023-02-28T08:30:29;17.30;;;7.73;;
11970;SDS011;6045;42.682;23.294;2023-02-28T08:32:56;15.73;;;8.67;;
11970;SDS011;6045;42.682;23.294;2023-02-28T08:35:23;21.53;;;10.37;;
11970;SDS011;6045;42.682;23.294;2023-02-28T08:37:50;24.70;;;12.30;;
11970;SDS011;6045;42.682;23.294;2023-02-28T08:40:17;23.53;;;11.13;;
11970;SDS011;6045;42.682;23.294;2023-02-28T08:42:45;24.10;;;11.93;;
11970;SDS011;6045;42.682;23.294;2023-02-28T08:45:12;27.07;;;13.73;;
11970;SDS011;6045;42.682;23.294;2023-02-28T08:47:40;25.83;;;13.73;;
11970;SDS011;6045;42.682;23.294;2023-02-28T08:50:07;24.77;;;11.63;;
11970;SDS011;6045;42.682;23.294;2023-02-28T08:52:35;21.97;;;13.13;;
11970;SDS011;6045;42.682;23.294;2023-02-28T08:55:03;25.80;;;14.17;;
11970;SDS011;6045;42.682;23.294;2023-02-28T08:57:30;32.50;;;15.17;;
11970;SDS011;6045;42.682;23.294;2023-02-28T08:59:59;29.17;;;13.63;;
11970;SDS011;6045;42.682;23.294;2023-02-28T09:02:29;26.10;;;13.43;;
11970;SDS011;6045;42.682;23.294;2023-02-28T09:04:56;25.43;;;13.97;;
11970;SDS011;6045;42.682;23.294;2023-02-28T09:07:23;36.50;;;14.07;;
11970;SDS011;6045;42.682;23.294;2023-02-28T09:09:50;24.53;;;12.20;;
11970;SDS011;6045;42.682;23.294;2023-02-28T09:12:19;20.23;;;10.57;;
11970;SDS011;6045;42.682;23.294;2023-02-28T09:14:46;23.77;;;11.00;;
11970;SDS011;6045;42.682;23.294;2023-02-28T09:17:15;23.97;;;10.80;;
11970;SDS011;6045;42.682;23.294;2023-02-28T09:19:41;31.57;;;13.57;;
11970;SDS011;6045;42.682;23.294;2023-02-28T09:22:08;30.13;;;14.90;;
11970;SDS011;6045;42.682;23.294;2023-02-28T09:24:36;29.47;;;13.37;;
11970;SDS011;6045;42.682;23.294;2023-02-28T09:27:03;31.57;;;15.80;;
11970;SDS011;6045;42.682;23.294;2023-02-28T09:29:31;32.33;;;16.63;;
11970;SDS011;6045;42.682;23.294;2023-02-28T09:31:59;35.33;;;14.67;;
11970;SDS011;6045;42.682;23.294;2023-02-28T09:34:27;30.50;;;15.03;;
11970;SDS011;6045;42.682;23.294;2023-02-28T09:36:55;35.33;;;17.03;;
11970;SDS011;6045;42.682;23.294;2023-02-28T09:39:22;46.07;;;23.83;;
11970;SDS011;6045;42.682;23.294;2023-02-28T09:41:52;53.17;;;25.77;;
11970;SDS011;6045;42.682;23.294;2023-02-28T09:44:22;50.50;;;23.47;;
11970;SDS011;6045;42.682;23.294;2023-02-28T09:46:55;37.57;;;19.77;;
11970;SDS011;6045;42.682;23.294;2023-02-28T09:49:28;71.53;;;34.27;;
11970;SDS011;6045;42.682;23.294;2023-02-28T09:52:03;45.07;;;19.93;;
11970;SDS011;6045;42.682;23.294;2023-02-28T09:54:34;30.67;;;16.83;;
11970;SDS011;6045;42.682;23.294;2023-02-28T09:57:07;30.50;;;16.30;;
11970;SDS011;6045;42.682;23.294;2023-02-28T09:59:41;33.30;;;17.00;;
11970;SDS011;6045;42.682;23.294;2023-02-28T10:05:32;35.13;;;16.67;;
11970;SDS011;6045;42.682;23.294;2023-02-28T10:08:05;26.40;;;15.07;;
11970;SDS011;6045;42.682;23.294;2023-02-28T10:10:39;30.90;;;16.73;;
11970;SDS011;6045;42.682;23.294;2023-02-28T10:13:12;30.70;;;15.63;;
11970;SDS011;6045;42.682;23.294;2023-02-28T10:15:43;30.97;;;12.70;;
11970;SDS011;6045;42.682;23.294;2023-02-28T10:18:13;24.63;;;13.17;;
11970;SDS011;6045;42.682;23.294;2023-02-28T10:20:47;27.63;;;13.80;;
11970;SDS011;6045;42.682;23.294;2023-02-28T10:23:17;22.60;;;12.47;;
11970;SDS011;6045;42.682;23.294;2023-02-28T10:25:48;16.03;;;8.70;;
11970;SDS011;6045;42.682;23.294;2023-02-28T10:28:20;10.23;;;6.10;;
11970;SDS011;6045;42.682;23.294;2023-02-28T10:30:48;10.07;;;5.27;;
11970;SDS011;6045;42.682;23.294;2023-02-28T10:33:19;10.60;;;5.30;;
11970;SDS011;6045;42.682;23.294;2023-02-28T10:35:51;15.20;;;6.27;;
11970;SDS011;6045;42.682;23.294;2023-02-28T10:38:20;9.40;;;5.40;;
11970;SDS011;6045;42.682;23.294;2023-02-28T10:40:48;9.27;;;5.33;;
11970;SDS011;6045;42.682;23.294;2023-02-28T10:43:19;8.27;;;4.90;;
11970;SDS011;6045;42.682;23.294;2023-02-28T10:45:53;10.97;;;6.00;;
11970;SDS011;6045;42.682;23.294;2023-02-28T10:48:26;10.03;;;5.63;;
11970;SDS011;6045;42.682;23.294;2023-02-28T10:50:58;7.07;;;4.50;;
11970;SDS011;6045;42.682;23.294;2023-02-28T10:53:30;13.90;;;6.13;;
11970;SDS011;6045;42.682;23.294;2023-02-28T10:55:59;18.90;;;5.30;;
11970;SDS011;6045;42.682;23.294;2023-02-28T10:58:28;10.40;;;5.33;;
11970;SDS011;6045;42.682;23.294;2023-02-28T11:00:57;9.33;;;5.10;;
11970;SDS011;6045;42.682;23.294;2023-02-28T11:03:34;17.43;;;5.40;;
11970;SDS011;6045;42.682;23.294;2023-02-28T11:06:07;11.77;;;5.60;;
11970;SDS011;6045;42.682;23.294;2023-02-28T11:08:43;8.77;;;4.77;;
11970;SDS011;6045;42.682;23.294;2023-02-28T11:11:12;10.33;;;5.23;;
11970;SDS011;6045;42.682;23.294;2023-02-28T11:13:39;8.33;;;3.87;;
11970;SDS011;6045;42.682;23.294;2023-02-28T11:16:07;12.20;;;5.87;;
11970;SDS011;6045;42.682;23.294;2023-02-28T11:18:38;5.77;;;4.07;;
11970;SDS011;6045;42.682;23.294;2023-02-28T11:21:09;9.40;;;5.70;;
11970;SDS011;6045;42.682;23.294;2023-02-28T11:23:44;10.80;;;5.30;;
11970;SDS011;6045;42.682;23.294;2023-02-28T11:26:11;13.30;;;5.27;;
11970;SDS011;6045;42.682;23.294;2023-02-28T11:28:38;11.57;;;5.03;;
11970;SDS011;6045;42.682;23.294;2023-02-28T11:31:15;11.83;;;5.17;;
11970;SDS011;6045;42.682;23.294;2023-02-28T11:33:45;8.27;;;5.10;;
11970;SDS011;6045;42.682;23.294;2023-02-28T11:36:18;9.20;;;5.37;;
11970;SDS011;6045;42.682;23.294;2023-02-28T11:38:50;6.73;;;5.00;;
11970;SDS011;6045;42.682;23.294;2023-02-28T11:41:33;10.57;;;5.20;;
11970;SDS011;6045;42.682;23.294;2023-02-28T11:44:18;10.03;;;4.80;;
11970;SDS011;6045;42.682;23.294;2023-02-28T11:46:54;8.97;;;5.00;;
11970;SDS011;6045;42.682;23.294;2023-02-28T11:49:30;9.97;;;5.10;;
11970;SDS011;6045;42.682;23.294;2023-02-28T11:52:06;14.97;;;7.00;;
11970;SDS011;6045;42.682;23.294;2023-02-28T11:54:59;12.23;;;5.30;;
11970;SDS011;6045;42.682;23.294;2023-02-28T11:57:35;11.17;;;5.10;;
11970;SDS011;6045;42.682;23.294;2023-02-28T12:00:25;9.85;;;5.18;;
11970;SDS011;6045;42.682;23.294;2023-02-28T12:03:08;10.90;;;5.63;;
11970;SDS011;6045;42.682;23.294;2023-02-28T12:05:49;11.77;;;5.77;;
11970;SDS011;6045;42.682;23.294;2023-02-28T12:08:27;8.38;;;4.82;;
11970;SDS011;6045;42.682;23.294;2023-02-28T12:11:10;15.73;;;6.30;;
11970;SDS011;6045;42.682;23.294;2023-02-28T12:13:46;7.88;;;5.03;;
11970;SDS011;6045;42.682;23.294;2023-02-28T12:16:23;7.88;;;5.18;;
11970;SDS011;6045;42.682;23.294;2023-02-28T12:19:06;10.15;;;5.90;;
11970;SDS011;6045;42.682;23.294;2023-02-28T12:27:43;14.60;;;6.47;;
11970;SDS011;6045;42.682;23.294;2023-02-28T12:30:14;9.33;;;5.63;;
11970;SDS011;6045;42.682;23.294;2023-02-28T12:32:45;11.10;;;4.23;;
11970;SDS011;6045;42.682;23.294;2023-02-28T12:35:16;10.60;;;4.77;;
11970;SDS011;6045;42.682;23.294;2023-02-28T12:37:50;8.07;;;4.73;;
11970;SDS011;6045;42.682;23.294;2023-02-28T12:40:23;7.53;;;4.63;;
11970;SDS011;6045;42.682;23.294;2023-02-28T12:42:55;10.67;;;5.23;;
11970;SDS011;6045;42.682;23.294;2023-02-28T12:45:24;9.57;;;5.37;;
11970;SDS011;6045;42.682;23.294;2023-02-28T12:47:58;9.63;;;4.90;;
11970;SDS011;6045;42.682;23.294;2023-02-28T12:50:28;14.10;;;6.10;;
11970;SDS011;6045;42.682;23.294;2023-02-28T12:52:58;13.27;;;6.17;;
11970;SDS011;6045;42.682;23.294;2023-02-28T12:55:31;11.77;;;5.50;;
11970;SDS011;6045;42.682;23.294;2023-02-28T12:58:08;8.00;;;4.60;;
11970;SDS011;6045;42.682;23.294;2023-02-28T13:00:46;13.43;;;4.90;;
11970;SDS011;6045;42.682;23.294;2023-02-28T13:06:37;7.80;;;3.93;;
11970;SDS011;6045;42.682;23.294;2023-02-28T13:09:16;10.70;;;4.43;;
11970;SDS011;6045;42.682;23.294;2023-02-28T13:11:45;8.73;;;4.30;;
11970;SDS011;6045;42.682;23.294;2023-02-28T13:14:24;8.67;;;4.80;;
11970;SDS011;6045;42.682;23.294;2023-02-28T13:16:57;11.33;;;5.47;;
11970;SDS011;6045;42.682;23.294;2023-02-28T13:19:28;9.20;;;4.57;;
11970;SDS011;6045;42.682;23.294;2023-02-28T13:21:56;17.53;;;4.50;;
11970;SDS011;6045;42.682;23.294;2023-02-28T13:24:41;8.80;;;5.07;;
11970;SDS011;6045;42.682;23.294;2023-02-28T13:27:19;9.10;;;5.10;;
11970;SDS011;6045;42.682;23.294;2023-02-28T13:29:50;12.93;;;4.87;;
11970;SDS011;6045;42.682;23.294;2023-02-28T13:32:30;11.70;;;5.63;;
11970;SDS011;6045;42.682;23.294;2023-02-28T13:35:14;14.20;;;5.93;;
11970;SDS011;6045;42.682;23.294;2023-02-28T13:38:09;8.80;;;4.60;;
11970;SDS011;6045;42.682;23.294;2023-02-28T13:40:42;9.37;;;4.23;;
11970;SDS011;6045;42.682;23.294;2023-02-28T13:43:10;10.63;;;4.30;;
11970;SDS011;6045;42.682;23.294;2023-02-28T13:45:37;9.03;;;4.90;;
11970;SDS011;6045;42.682;23.294;2023-02-28T13:48:05;9.30;;;3.93;;
11970;SDS011;6045;42.682;23.294;2023-02-28T13:50:43;9.53;;;5.10;;
11970;SDS011;6045;42.682;23.294;2023-02-28T13:56:24;11.87;;;5.00;;
11970;SDS011;6045;42.682;23.294;2023-02-28T13:59:00;12.57;;;5.67;;
11970;SDS011;6045;42.682;23.294;2023-02-28T14:04:46;8.20;;;3.73;;
11970;SDS011;6045;42.682;23.294;2023-02-28T14:07:20;6.60;;;4.03;;
11970;SDS011;6045;42.682;23.294;2023-02-28T14:09:51;9.77;;;3.80;;
11970;SDS011;6045;42.682;23.294;2023-02-28T14:15:28;7.50;;;3.53;;
11970;SDS011;6045;42.682;23.294;2023-02-28T14:18:22;7.73;;;4.13;;
11970;SDS011;6045;42.682;23.294;2023-02-28T14:20:52;6.30;;;3.47;;
11970;SDS011;6045;42.682;23.294;2023-02-28T14:23:44;6.33;;;3.70;;
11970;SDS011;6045;42.682;23.294;2023-02-28T14:26:29;9.47;;;4.50;;
11970;SDS011;6045;42.682;23.294;2023-02-28T14:29:19;7.47;;;3.97;;
11970;SDS011;6045;42.682;23.294;2023-02-28T14:32:02;7.37;;;4.47;;
11970;SDS011;6045;42.682;23.294;2023-02-28T14:34:39;8.73;;;4.17;;
11970;SDS011;6045;42.682;23.294;2023-02-28T14:37:13;7.83;;;4.37;;
11970;SDS011;6045;42.682;23.294;2023-02-28T14:39:44;9.07;;;4.43;;
11970;SDS011;6045;42.682;23.294;2023-02-28T14:42:25;9.17;;;4.03;;
11970;SDS011;6045;42.682;23.294;2023-02-28T14:44:54;7.77;;;3.80;;
11970;SDS011;6045;42.682;23.294;2023-02-28T14:47:23;5.97;;;4.07;;
11970;SDS011;6045;42.682;23.294;2023-02-28T14:49:53;9.33;;;3.03;;
11970;SDS011;6045;42.682;23.294;2023-02-28T14:52:21;8.70;;;3.67;;
11970;SDS011;6045;42.682;23.294;2023-02-28T14:54:51;5.00;;;3.30;;
11970;SDS011;6045;42.682;23.294;2023-02-28T14:57:23;7.23;;;2.73;;
11970;SDS011;6045;42.682;23.294;2023-02-28T15:00:00;5.57;;;3.10;;
11970;SDS011;6045;42.682;23.294;2023-02-28T15:02:37;5.90;;;3.47;;
11970;SDS011;6045;42.682;23.294;2023-02-28T15:05:16;7.07;;;4.13;;
11970;SDS011;6045;42.682;23.294;2023-02-28T15:07:48;6.33;;;3.20;;
11970;SDS011;6045;42.682;23.294;2023-02-28T15:10:26;6.67;;;3.60;;
11970;SDS011;6045;42.682;23.294;2023-02-28T15:12:55;8.20;;;4.00;;
11970;SDS011;6045;42.682;23.294;2023-02-28T15:15:24;12.50;;;4.00;;
11970;SDS011;6045;42.682;23.294;2023-02-28T15:17:55;6.47;;;4.67;;
11970;SDS011;6045;42.682;23.294;2023-02-28T15:20:24;10.57;;;4.27;;
11970;SDS011;6045;42.682;23.294;2023-02-28T15:22:52;7.30;;;4.23;;
11970;SDS011;6045;42.682;23.294;2023-02-28T15:25:22;9.67;;;3.77;;
11970;SDS011;6045;42.682;23.294;2023-02-28T15:27:50;6.47;;;3.37;;
11970;SDS011;6045;42.682;23.294;2023-02-28T15:30:19;10.03;;;4.07;;